KHCD

Hutchinson Municipal-Butler Field Airport

Hutchinson, Minnesota, USA
METAR KHCD 161415Z AUTO 04007KT 3SM BR OVC004 M03/M03 A2978 RMK AO2 T10291033
Observed Flight Rules
Dec-16 @ 14:15 UTC (19 minutes ago) Instrument Flight Rules
Wind Visibility Clouds Conditions
40° at 7 knots 3 miles
  • Overcast at 400' AGL
  • Mist
Temperatures Readings
Current -3°C / 27°F
Dewpoint -3°C / 27°F
Humidity 100%
Altimeter 29.78" Hg
Pressure 1008 hPa
Elevation 323
METAR KHCD 161415Z AUTO 04007KT 3SM BR OVC004 M03/M03 A2978 RMK AO2 T10291033
Observed Flight Rules
Dec-16 @ 14:15 UTC
(19 minutes ago)
LIFR
Wind Visibility
40° at 7 knots 3 miles
Clouds
  • Overcast at 400' AGL
Conditions
  • Mist
Temperature Dewpoint
-3°C / 27°F -3°C / 27°F
Humidity Altimeter Pressure
100% 29.78" Hg 1008 hPa